Time;durP1;ratioP1;P1;durP2;ratioP2;P2;SDS_P1;SDS_P2;PMS_P1;PMS_P2;Temp;Humidity;BMP_temperature;BMP_pressure;BME280_temperature;BME280_humidity;BME280_pressure;Samples;Min_cycle;Max_cycle;Signal;HPM_P1;HPM_P2
2023/07/05 04:30:45;;;;;;;;;2.00;2.00;;;;;21.89;46.62;100982.63;5038304;27;46732;-77
2023/07/05 04:33:11;;;;;;;;;3.00;3.00;;;;;22.09;46.18;100981.75;5013445;28;45355;-75
2023/07/05 04:35:37;;;;;;;;;6.25;4.50;;;;;22.01;46.78;100984.31;5013571;28;45253;-75
2023/07/05 04:38:06;;;;;;;;;4.50;4.50;;;;;22.19;46.36;100984.53;4995398;28;54224;-74
2023/07/05 04:40:31;;;;;;;;;2.50;2.50;;;;;22.13;46.27;100980.47;4996117;28;46271;-75
2023/07/05 04:42:56;;;;;;;;;6.50;4.50;;;;;22.21;46.60;100983.38;4993272;28;50775;-76
2023/07/05 04:45:21;;;;;;;;;7.00;4.00;;;;;22.33;46.11;100986.00;4992646;28;48896;-75
2023/07/05 04:47:47;;;;;;;;;9.00;7.00;;;;;21.81;47.05;100982.47;4992265;28;45391;-75
2023/07/05 04:50:12;;;;;;;;;7.50;4.00;;;;;22.18;46.60;100999.19;4993483;28;45499;-76
2023/07/05 04:52:37;;;;;;;;;7.00;4.50;;;;;22.01;46.81;100995.25;4993617;28;45250;-76
2023/07/05 04:55:03;;;;;;;;;4.00;4.00;;;;;22.05;46.63;100996.69;4993487;28;49883;-75
2023/07/05 04:57:28;;;;;;;;;5.00;3.50;;;;;22.22;46.66;100985.09;4975834;28;46569;-75
2023/07/05 04:59:54;;;;;;;;;6.00;4.50;;;;;22.30;46.52;101000.78;5013303;28;45940;-76
2023/07/05 05:02:19;;;;;;;;;3.50;3.50;;;;;22.42;46.12;101004.28;5016851;28;45258;-77
2023/07/05 05:04:44;;;;;;;;;5.75;5.75;;;;;22.43;46.36;101009.59;5015852;28;49124;-76
2023/07/05 05:07:10;;;;;;;;;4.00;4.00;;;;;22.37;46.34;101006.56;5016176;28;45476;-75
2023/07/05 05:09:35;;;;;;;;;3.75;3.75;;;;;22.18;47.04;100988.25;5016774;28;46049;-70
2023/07/05 05:12:00;;;;;;;;;5.75;3.75;;;;;22.19;46.95;100998.19;5016582;28;45273;-74
2023/07/05 05:14:26;;;;;;;;;5.00;5.00;;;;;22.34;46.39;100987.72;5016418;28;45296;-74
2023/07/05 05:16:51;;;;;;;;;4.50;4.50;;;;;22.43;46.31;101004.13;5014972;28;45547;-74
2023/07/05 05:19:16;;;;;;;;;4.00;4.00;;;;;22.15;47.22;101005.78;4997056;28;50317;-71
2023/07/05 05:21:42;;;;;;;;;6.75;5.00;;;;;22.15;47.06;100994.00;4994035;28;48141;-72
2023/07/05 05:24:07;;;;;;;;;3.75;3.75;;;;;22.08;47.05;100990.09;5014005;28;45555;-72
2023/07/05 05:26:32;;;;;;;;;5.75;4.25;;;;;22.07;47.24;101007.47;5015936;28;45237;-71
2023/07/05 05:28:57;;;;;;;;;4.00;4.00;;;;;22.34;46.83;101015.91;5014715;28;47006;-72
2023/07/05 05:31:23;;;;;;;;;5.00;4.00;;;;;22.12;46.71;101010.63;5016258;28;45208;-72
2023/07/05 05:33:48;;;;;;;;;10.50;3.75;;;;;22.30;46.56;101014.44;5016156;28;45472;-72
2023/07/05 05:36:14;;;;;;;;;4.25;4.25;;;;;22.47;46.31;100997.38;5016111;28;50131;-74
2023/07/05 05:38:39;;;;;;;;;6.00;4.00;;;;;22.44;46.43;101005.88;5014125;28;45372;-80
2023/07/05 05:41:10;;;;;;;;;4.75;3.00;;;;;22.74;46.08;101001.31;4975382;28;45494;-76
2023/07/05 05:43:37;;;;;;;;;6.00;4.00;;;;;22.72;45.89;101006.91;4992943;28;45464;-74
2023/07/05 05:46:02;;;;;;;;;3.00;3.00;;;;;23.00;45.42;101002.50;4995543;28;45497;-74
2023/07/05 05:48:28;;;;;;;;;5.50;4.00;;;;;22.99;45.30;101004.38;4995850;28;46301;-75
2023/07/05 05:50:53;;;;;;;;;2.75;2.00;;;;;22.79;45.66;101002.66;4996051;28;45431;-73
2023/07/05 05:53:18;;;;;;;;;5.00;5.00;;;;;23.05;45.59;101011.16;4995988;28;45337;-72
2023/07/05 05:55:44;;;;;;;;;2.00;2.00;;;;;23.15;44.88;101027.53;4996163;28;45249;-72
2023/07/05 05:58:09;;;;;;;;;4.25;4.25;;;;;22.59;46.80;101023.59;4996227;28;45317;-72
2023/07/05 06:00:36;;;;;;;;;3.00;2.00;;;;;22.89;45.78;101021.78;4995970;28;45404;-71
2023/07/05 06:03:02;;;;;;;;;3.00;3.00;;;;;23.15;45.38;101016.59;4995525;28;45552;-71
2023/07/05 06:05:27;;;;;;;;;4.75;3.75;;;;;23.27;44.80;101019.06;4995780;28;45642;-72
2023/07/05 06:07:53;;;;;;;;;6.00;5.00;;;;;23.43;44.81;101040.34;4994216;28;45443;-71
2023/07/05 06:10:19;;;;;;;;;6.75;6.00;;;;;23.13;45.24;101033.19;4996217;28;45320;-72
2023/07/05 06:12:44;;;;;;;;;6.00;6.00;;;;;22.98;45.81;101040.94;4976648;28;45467;-70
2023/07/05 06:15:12;;;;;;;;;8.00;7.25;;;;;23.01;45.43;101037.06;4995998;28;45479;-71
2023/07/05 06:17:37;;;;;;;;;7.50;4.25;;;;;23.15;45.26;101020.19;4995612;28;45277;-71
2023/07/05 06:20:06;;;;;;;;;7.00;5.25;;;;;23.22;45.25;101037.75;4995626;28;45354;-71
2023/07/05 06:22:36;;;;;;;;;5.25;4.25;;;;;22.97;45.99;101036.47;4977893;28;45460;-72
2023/07/05 06:25:02;;;;;;;;;3.50;3.50;;;;;23.15;45.51;101046.69;4995498;28;45507;-71
2023/07/05 06:27:28;;;;;;;;;5.00;3.00;;;;;23.26;45.05;101054.75;4995028;28;46646;-71
2023/07/05 06:29:55;;;;;;;;;3.25;3.25;;;;;23.36;44.91;101041.94;4995657;28;45274;-72
2023/07/05 06:32:22;;;;;;;;;5.50;4.00;;;;;23.55;44.49;101041.09;4994165;28;45556;-68
2023/07/05 06:34:47;;;;;;;;;4.00;4.00;;;;;23.62;44.15;101047.69;4992938;28;45653;-71
2023/07/05 06:37:12;;;;;;;;;4.75;3.00;;;;;23.33;45.16;101034.00;4993235;28;45440;-70
2023/07/05 06:39:40;;;;;;;;;5.00;3.25;;;;;23.43;45.08;101047.69;4994787;28;45317;-72
2023/07/05 06:42:05;;;;;;;;;4.00;4.00;;;;;23.32;44.77;101059.66;4994610;28;45508;-72
2023/07/05 06:44:31;;;;;;;;;4.00;4.00;;;;;23.48;45.02;101057.19;4994900;28;45592;-70
2023/07/05 06:46:56;;;;;;;;;6.50;4.00;;;;;23.37;44.95;101057.34;4994685;28;51039;-70
2023/07/05 06:49:22;;;;;;;;;6.25;6.00;;;;;23.01;45.33;101056.19;4994368;28;45547;-69
2023/07/05 06:51:47;;;;;;;;;3.00;2.00;;;;;23.50;44.95;101063.41;4994580;28;45536;-70
2023/07/05 06:54:12;;;;;;;;;9.25;6.50;;;;;23.26;45.26;101077.50;4994205;28;45479;-72
2023/07/05 06:56:37;;;;;;;;;4.00;4.00;;;;;23.57;44.78;101080.97;4994404;28;45755;-73
2023/07/05 06:59:03;;;;;;;;;5.00;4.00;;;;;23.92;44.35;101074.00;4994782;28;45452;-70
2023/07/05 07:01:28;;;;;;;;;6.00;6.00;;;;;23.75;44.29;101081.94;4977657;28;45433;-72
2023/07/05 07:03:55;;;;;;;;;8.25;4.75;;;;;23.97;43.90;101083.50;4994549;28;45602;-70
2023/07/05 07:06:20;;;;;;;;;4.75;4.75;;;;;24.02;43.86;101094.00;4994369;28;45528;-71
2023/07/05 07:08:46;;;;;;;;;3.25;3.25;;;;;23.23;45.06;101109.75;4994145;28;45416;-74
2023/07/05 07:11:12;;;;;;;;;4.25;4.25;;;;;23.68;44.85;101097.25;4994469;28;45447;-75
2023/07/05 07:13:38;;;;;;;;;9.50;4.00;;;;;23.87;44.36;101103.69;4994824;28;45601;-74
2023/07/05 07:16:05;;;;;;;;;3.00;3.00;;;;;23.45;44.34;101109.47;4994210;28;45581;-74
2023/07/05 07:18:31;;;;;;;;;3.00;3.00;;;;;23.93;43.84;101112.19;4994074;28;45349;-75
2023/07/05 07:20:59;;;;;;;;;5.25;5.25;;;;;24.13;43.82;101119.34;4993816;28;45482;-74
2023/07/05 07:23:25;;;;;;;;;4.00;4.00;;;;;24.52;43.57;101106.38;4993383;28;45566;-73
2023/07/05 07:25:58;;;;;;;;;6.25;4.00;;;;;24.68;42.61;101124.06;4993964;28;46122;-74
2023/07/05 07:28:23;;;;;;;;;5.00;5.00;;;;;24.59;42.09;101114.00;4991831;28;45373;-74
2023/07/05 07:30:48;;;;;;;;;6.00;5.25;;;;;24.59;42.63;101120.34;4993820;28;45158;-72
2023/07/05 07:33:14;;;;;;;;;4.50;3.50;;;;;24.61;42.76;101114.72;4994957;28;46962;-71
2023/07/05 07:35:39;;;;;;;;;4.50;4.00;;;;;24.63;42.67;101116.31;4976905;28;45215;-70
2023/07/05 07:38:04;;;;;;;;;6.50;4.00;;;;;24.62;42.54;101131.03;4994335;28;45303;-71
2023/07/05 07:40:36;;;;;;;;;2.00;2.00;;;;;24.66;42.23;101129.72;4994602;28;45365;-71
2023/07/05 07:43:02;;;;;;;;;10.00;3.75;;;;;24.75;41.76;101109.59;4994888;28;45467;-72
2023/07/05 07:45:27;;;;;;;;;4.00;3.00;;;;;24.91;41.68;101132.75;4994164;28;45325;-72
2023/07/05 07:47:53;;;;;;;;;7.50;4.00;;;;;24.85;42.22;101132.34;4994713;28;45269;-70
2023/07/05 07:50:18;;;;;;;;;4.25;3.50;;;;;25.09;41.86;101139.19;4994167;28;47270;-71
2023/07/05 07:52:45;;;;;;;;;5.00;5.00;;;;;25.32;41.37;101139.59;4994561;28;48711;-70
2023/07/05 07:55:10;;;;;;;;;4.00;3.00;;;;;25.40;41.39;101146.03;4994317;28;45326;-72
2023/07/05 07:57:35;;;;;;;;;4.00;4.00;;;;;25.35;41.41;101136.53;4994707;28;45301;-70
2023/07/05 08:00:01;;;;;;;;;4.75;4.75;;;;;25.66;41.52;101140.63;4994528;28;45376;-70
2023/07/05 08:02:26;;;;;;;;;8.00;3.50;;;;;25.36;41.08;101154.72;4994610;28;45292;-71
2023/07/05 08:04:51;;;;;;;;;3.00;1.50;;;;;24.93;41.92;101139.81;4994052;28;45321;-71
2023/07/05 08:07:17;;;;;;;;;6.50;5.75;;;;;25.05;41.64;101135.00;4985542;28;45430;-70
2023/07/05 08:09:42;;;;;;;;;3.50;2.50;;;;;25.24;41.23;101134.88;4994163;28;45305;-70
2023/07/05 08:12:08;;;;;;;;;4.00;4.00;;;;;25.11;41.06;101154.44;4994488;28;45375;-70
2023/07/05 08:14:33;;;;;;;;;4.25;4.25;;;;;25.29;41.65;101137.13;4994181;28;46159;-70
2023/07/05 08:16:59;;;;;;;;;3.25;3.25;;;;;25.58;41.32;101130.41;4994336;28;45434;-70
2023/07/05 08:19:24;;;;;;;;;2.25;2.25;;;;;25.64;40.53;101139.94;4994212;28;45382;-70
2023/07/05 08:21:50;;;;;;;;;4.25;3.25;;;;;25.32;40.97;101143.19;4994297;28;45647;-71
2023/07/05 08:24:16;;;;;;;;;4.00;4.00;;;;;25.07;40.66;101138.47;4984765;28;46538;-69
2023/07/05 08:26:41;;;;;;;;;3.50;3.50;;;;;25.14;40.88;101134.06;4993532;28;45206;-70
2023/07/05 08:29:08;;;;;;;;;6.00;4.00;;;;;25.46;40.54;101144.53;4990081;28;45339;-70
2023/07/05 08:31:34;;;;;;;;;3.75;3.75;;;;;25.31;40.43;101141.47;4993729;28;45493;-70
2023/07/05 08:34:01;;;;;;;;;3.50;3.00;;;;;25.50;40.24;101143.19;4986626;28;46269;-70
2023/07/05 08:36:35;;;;;;;;;2.75;2.75;;;;;25.69;40.11;101153.19;4989319;28;45412;-69
2023/07/05 08:39:03;;;;;;;;;5.75;4.00;;;;;25.75;39.88;101158.06;4994828;28;45298;-68
2023/07/05 08:41:41;;;;;;;;;4.00;3.00;;;;;25.69;40.23;101153.19;4991098;28;45365;-70
2023/07/05 08:44:24;;;;;;;;;3.00;3.00;;;;;25.78;39.86;101172.31;4992865;28;45433;-70
2023/07/05 08:47:01;;;;;;;;;7.75;4.25;;;;;25.81;39.30;101171.13;4991833;28;45532;-71
2023/07/05 08:49:32;;;;;;;;;5.00;4.75;;;;;25.73;39.56;101152.72;4994403;28;45370;-70
2023/07/05 08:51:59;;;;;;;;;1.00;1.00;;;;;25.85;39.66;101172.56;4996488;28;45689;-71
2023/07/05 08:54:32;;;;;;;;;5.25;1.00;;;;;25.62;39.73;101186.75;4979107;28;47922;-69
2023/07/05 08:57:20;;;;;;;;;5.75;5.75;;;;;25.74;39.56;101176.41;4995635;28;45449;-72
2023/07/05 09:00:05;;;;;;;;;2.25;2.25;;;;;25.88;39.38;101181.34;4997069;28;45459;-73
2023/07/05 09:02:30;;;;;;;;;3.00;3.00;;;;;25.74;39.94;101181.91;4997085;28;45248;-73
2023/07/05 09:04:58;;;;;;;;;4.00;2.00;;;;;25.70;40.25;101179.63;4996612;28;45571;-74
2023/07/05 09:08:03;;;;;;;;;4.00;4.00;;;;;25.73;39.66;101182.91;4996732;28;45305;-73
2023/07/05 09:11:00;;;;;;;;;3.75;3.00;;;;;26.13;39.54;101173.28;4979181;28;45497;-73
2023/07/05 09:13:40;;;;;;;;;5.50;3.50;;;;;26.19;38.82;101165.28;4995874;28;45387;-72
2023/07/05 09:16:25;;;;;;;;;2.50;2.50;;;;;25.93;38.77;101172.63;4978827;28;47433;-73
2023/07/05 09:18:58;;;;;;;;;3.25;3.25;;;;;25.74;39.35;101176.41;4988555;28;45380;-73
2023/07/05 09:21:36;;;;;;;;;4.00;4.00;;;;;25.98;39.75;101176.63;4995947;28;45349;-70
2023/07/05 09:24:28;;;;;;;;;6.00;3.50;;;;;26.13;39.14;101176.03;4989232;28;45306;-73
2023/07/05 09:27:04;;;;;;;;;6.50;3.00;;;;;25.84;38.43;101165.34;4995522;28;46329;-69
2023/07/05 09:29:46;;;;;;;;;6.00;3.00;;;;;25.54;38.74;101161.06;4992331;28;45405;-70
2023/07/05 09:32:16;;;;;;;;;3.50;3.50;;;;;25.96;39.25;101169.53;4978809;28;45353;-71
2023/07/05 09:34:48;;;;;;;;;6.00;5.00;;;;;25.88;39.71;101175.84;4978330;28;46254;-71
2023/07/05 09:37:15;;;;;;;;;5.75;3.50;;;;;25.90;39.66;101160.06;4990796;28;45412;-73
2023/07/05 09:39:56;;;;;;;;;7.50;4.00;;;;;26.31;38.83;101175.00;4987789;28;45333;-70
2023/07/05 09:42:30;;;;;;;;;5.25;4.00;;;;;26.22;39.62;101164.06;4995498;28;45335;-70
2023/07/05 09:44:56;;;;;;;;;3.75;3.00;;;;;26.33;38.54;101172.09;4995718;28;45479;-71
2023/07/05 09:47:23;;;;;;;;;3.00;3.00;;;;;26.24;38.76;101170.28;4995490;28;45389;-71
2023/07/05 09:49:48;;;;;;;;;3.00;3.00;;;;;26.38;37.69;101172.44;4995482;28;45401;-72
2023/07/05 09:52:20;;;;;;;;;2.25;1.75;;;;;26.44;37.88;101179.22;4996302;28;45369;-73
2023/07/05 09:54:48;;;;;;;;;5.00;5.00;;;;;26.55;37.88;101182.53;4991345;28;46155;-71
2023/07/05 09:57:22;;;;;;;;;3.75;3.75;;;;;26.81;37.59;101188.00;4988792;28;46425;-72
2023/07/05 09:59:48;;;;;;;;;5.25;3.75;;;;;27.04;37.04;101182.81;4995982;28;45443;-72
2023/07/05 10:02:25;;;;;;;;;3.00;3.00;;;;;26.86;37.06;101182.88;4996515;28;45412;-72
2023/07/05 10:04:53;;;;;;;;;3.50;3.50;;;;;26.92;36.74;101189.63;4996049;28;45794;-72
2023/07/05 10:07:25;;;;;;;;;4.00;4.00;;;;;26.87;36.30;101186.50;4995990;28;45534;-73
2023/07/05 10:10:03;;;;;;;;;4.00;4.00;;;;;26.65;36.25;101202.53;4995849;28;45575;-71
2023/07/05 10:12:40;;;;;;;;;3.00;3.00;;;;;26.63;36.35;101203.72;4995736;28;45429;-73
2023/07/05 10:15:23;;;;;;;;;6.00;4.25;;;;;26.91;36.22;101187.91;4995852;28;45351;-71
2023/07/05 10:17:51;;;;;;;;;3.00;3.00;;;;;27.25;36.56;101193.38;4995703;28;46525;-72
2023/07/05 10:20:40;;;;;;;;;5.00;3.25;;;;;27.16;35.61;101186.09;4995392;28;45391;-71
2023/07/05 10:23:15;;;;;;;;;5.50;4.50;;;;;27.28;35.78;101204.06;4976390;28;45242;-70
2023/07/05 10:25:44;;;;;;;;;2.00;2.00;;;;;27.40;35.81;101187.03;4995721;28;45228;-72
2023/07/05 10:28:17;;;;;;;;;5.75;3.75;;;;;27.38;35.28;101208.41;4995877;28;46375;-70
2023/07/05 10:30:59;;;;;;;;;4.00;4.00;;;;;27.19;35.29;101205.91;4995635;28;45354;-72
2023/07/05 10:33:46;;;;;;;;;1.75;1.75;;;;;27.27;35.11;101200.44;4995851;28;45334;-71
2023/07/05 10:36:14;;;;;;;;;4.00;4.00;;;;;27.42;35.65;101203.41;4991666;28;53989;-73
2023/07/05 10:38:40;;;;;;;;;1.50;0.50;;;;;27.39;34.88;101198.25;4994162;28;45269;-72
2023/07/05 10:41:20;;;;;;;;;2.75;2.75;;;;;27.48;35.56;101186.19;4995114;28;45357;-73
2023/07/05 10:44:01;;;;;;;;;2.50;2.50;;;;;27.64;35.07;101185.41;4994791;28;45238;-71
2023/07/05 10:46:26;;;;;;;;;4.00;4.00;;;;;27.82;35.18;101180.56;4994147;28;45484;-71
2023/07/05 10:48:53;;;;;;;;;4.75;3.75;;;;;27.90;35.07;101191.63;4976618;28;46065;-75
2023/07/05 10:51:24;;;;;;;;;5.50;4.25;;;;;27.65;35.47;101200.88;4993725;28;45325;-69
2023/07/05 10:53:57;;;;;;;;;2.75;2.75;;;;;28.12;34.41;101193.69;4993291;28;45258;-69
2023/07/05 10:56:29;;;;;;;;;3.75;3.00;;;;;28.18;34.06;101193.00;4974516;28;45469;-73
2023/07/05 10:59:01;;;;;;;;;5.25;4.00;;;;;28.09;34.52;101195.91;4993541;28;45504;-74
2023/07/05 11:01:32;;;;;;;;;3.00;2.75;;;;;27.97;33.20;101192.66;4977445;28;45478;-73
2023/07/05 11:04:12;;;;;;;;;3.75;3.75;;;;;28.07;33.66;101198.00;4994575;28;45317;-75
2023/07/05 11:06:41;;;;;;;;;4.25;4.25;;;;;27.88;33.65;101184.56;4994216;28;45483;-73
2023/07/05 11:09:10;;;;;;;;;6.50;4.00;;;;;27.98;33.93;101186.13;4993962;28;45480;-74
2023/07/05 11:11:48;;;;;;;;;5.50;4.25;;;;;27.58;34.21;101194.34;4992411;28;45437;-74
2023/07/05 11:14:15;;;;;;;;;5.00;3.50;;;;;27.99;33.56;101209.00;4991727;28;45583;-74
2023/07/05 11:16:45;;;;;;;;;2.25;2.25;;;;;28.15;33.32;101181.47;4994633;28;45461;-74
2023/07/05 11:19:26;;;;;;;;;2.75;2.75;;;;;28.03;32.98;101193.84;4994523;28;45456;-74
2023/07/05 11:21:52;;;;;;;;;2.00;2.00;;;;;28.15;32.65;101179.56;4995568;28;45431;-74
2023/07/05 11:24:44;;;;;;;;;2.25;2.25;;;;;28.44;32.55;101173.50;4994968;28;45472;-74
2023/07/05 11:27:25;;;;;;;;;4.50;3.75;;;;;28.85;33.21;101179.78;4995158;28;45302;-73
2023/07/05 11:29:52;;;;;;;;;2.50;2.50;;;;;28.79;32.49;101176.88;4994680;28;46368;-73
2023/07/05 11:32:22;;;;;;;;;3.00;3.00;;;;;28.66;32.22;101180.19;4974076;28;45602;-71
2023/07/05 11:34:50;;;;;;;;;4.75;3.75;;;;;28.43;32.70;101177.28;4994362;28;45360;-70
2023/07/05 11:37:15;;;;;;;;;1.75;1.75;;;;;28.59;31.94;101190.19;4994558;28;45607;-72
2023/07/05 11:39:43;;;;;;;;;2.50;1.75;;;;;28.69;32.38;101182.56;4994594;28;45467;-71
2023/07/05 11:42:14;;;;;;;;;2.50;2.50;;;;;28.88;32.21;101182.19;4994676;28;45423;-71
2023/07/05 11:44:50;;;;;;;;;3.50;3.50;;;;;28.57;32.34;101172.97;4994907;28;45346;-71
2023/07/05 11:47:24;;;;;;;;;5.25;5.25;;;;;28.61;32.29;101186.22;4994330;28;45661;-72
2023/07/05 11:50:01;;;;;;;;;3.00;3.00;;;;;28.86;31.91;101170.47;4994221;28;45385;-70
2023/07/05 11:52:33;;;;;;;;;3.00;3.00;;;;;28.60;32.60;101176.22;4994690;28;45445;-71
2023/07/05 11:55:23;;;;;;;;;2.00;1.50;;;;;29.05;31.46;101176.59;4994427;28;45239;-72
2023/07/05 11:57:53;;;;;;;;;3.00;3.00;;;;;28.78;31.92;101183.44;4994515;28;46029;-70
2023/07/05 12:00:29;;;;;;;;;2.25;2.25;;;;;28.73;31.55;101188.59;4994803;28;46157;-68
2023/07/05 12:02:59;;;;;;;;;2.50;2.50;;;;;28.85;32.01;101190.81;4977370;28;45496;-71
2023/07/05 12:05:28;;;;;;;;;3.25;3.00;;;;;28.49;32.30;101193.16;4994953;28;45473;-73
2023/07/05 12:07:59;;;;;;;;;3.00;2.00;;;;;28.63;31.99;101190.69;4994100;28;45522;-71
2023/07/05 12:10:29;;;;;;;;;4.50;3.00;;;;;28.39;33.18;101219.19;4996753;28;45337;-71
2023/07/05 12:12:55;;;;;;;;;6.00;4.00;;;;;28.11;33.67;101211.25;4997743;28;45339;-71
2023/07/05 12:15:21;;;;;;;;;3.50;3.50;;;;;27.73;35.86;101223.78;4997938;28;45333;-70
2023/07/05 12:17:47;;;;;;;;;6.50;3.25;;;;;27.77;36.81;101200.41;4997140;28;45655;-70
2023/07/05 12:20:36;;;;;;;;;2.50;2.50;;;;;27.81;35.82;101211.94;4996961;28;45492;-70
2023/07/05 12:23:02;;;;;;;;;4.75;3.00;;;;;28.06;36.57;101216.44;4996638;28;45330;-69
2023/07/05 12:25:29;;;;;;;;;3.50;2.75;;;;;28.21;37.17;101211.13;4996856;28;45431;-71
2023/07/05 12:27:55;;;;;;;;;4.25;4.25;;;;;28.44;36.63;101222.28;4996890;28;45722;-70
2023/07/05 12:30:22;;;;;;;;;2.25;2.25;;;;;28.34;35.99;101208.69;4996476;28;47084;-71
2023/07/05 12:32:53;;;;;;;;;6.25;2.00;;;;;28.48;35.71;101209.88;4978947;28;45674;-70
2023/07/05 12:35:22;;;;;;;;;3.75;3.75;;;;;28.50;36.20;101207.78;4996403;28;45440;-71
2023/07/05 12:37:55;;;;;;;;;4.00;4.00;;;;;28.73;35.73;101200.50;4994270;28;46061;-70
2023/07/05 12:40:37;;;;;;;;;3.00;2.50;;;;;28.87;34.98;101204.44;4996152;28;46049;-71
2023/07/05 12:43:08;;;;;;;;;4.00;4.00;;;;;29.03;33.99;101212.66;4997559;28;45423;-71
2023/07/05 12:45:39;;;;;;;;;3.00;2.50;;;;;29.32;34.86;101200.97;4997315;28;45315;-71
2023/07/05 12:48:24;;;;;;;;;4.25;3.75;;;;;29.43;32.93;101202.50;4995594;28;45550;-71
2023/07/05 12:51:03;;;;;;;;;2.75;2.75;;;;;29.39;33.58;101202.00;4996415;28;47299;-71
2023/07/05 12:53:28;;;;;;;;;4.00;4.00;;;;;29.83;34.14;101196.69;4996647;28;45687;-73
2023/07/05 12:56:03;;;;;;;;;5.00;3.00;;;;;30.00;32.53;101192.78;4996951;28;45392;-71
2023/07/05 12:58:30;;;;;;;;;4.00;2.75;;;;;30.53;32.71;101185.38;4996983;28;45562;-71
2023/07/05 13:00:57;;;;;;;;;4.00;4.00;;;;;30.78;31.25;101199.81;4997173;28;45961;-70
2023/07/05 13:03:24;;;;;;;;;2.25;2.25;;;;;30.82;30.43;101178.97;4996890;28;45247;-72
2023/07/05 13:05:51;;;;;;;;;3.00;3.00;;;;;31.01;31.06;101178.41;4996996;28;45445;-72
2023/07/05 13:08:17;;;;;;;;;4.50;3.00;;;;;31.03;30.26;101190.16;4996764;28;45619;-71
2023/07/05 13:10:44;;;;;;;;;2.00;2.00;;;;;31.00;29.81;101179.44;4996976;28;45918;-74
2023/07/05 13:13:33;;;;;;;;;4.00;3.00;;;;;30.82;31.03;101187.28;4997106;28;45331;-72
2023/07/05 13:16:17;;;;;;;;;2.00;2.00;;;;;31.32;29.87;101174.53;4996974;28;45314;-71
2023/07/05 13:19:02;;;;;;;;;2.25;1.75;;;;;31.72;29.16;101171.19;4996803;28;45266;-71
2023/07/05 13:21:44;;;;;;;;;4.50;2.50;;;;;32.19;29.37;101159.47;4995693;28;45335;-71
2023/07/05 13:24:33;;;;;;;;;2.25;2.25;;;;;32.12;28.80;101164.09;4996771;28;45321;-71
2023/07/05 13:27:00;;;;;;;;;5.00;2.75;;;;;31.40;28.22;101171.66;4996647;28;45350;-71
2023/07/05 13:29:28;;;;;;;;;3.25;2.25;;;;;31.08;29.34;101181.28;4996429;28;45192;-71
2023/07/05 13:31:55;;;;;;;;;2.00;2.00;;;;;30.93;28.95;101167.44;4985152;28;45467;-72
2023/07/05 13:34:21;;;;;;;;;2.25;1.50;;;;;30.74;29.15;101177.19;4976654;28;45356;-71
2023/07/05 13:36:48;;;;;;;;;4.75;2.00;;;;;30.39;29.08;101172.34;4976902;28;45338;-71
2023/07/05 13:39:16;;;;;;;;;3.50;2.50;;;;;30.75;28.91;101167.81;4976922;28;45227;-71
2023/07/05 13:41:43;;;;;;;;;3.25;3.00;;;;;30.43;29.90;101174.56;4976749;28;46643;-71
2023/07/05 13:44:14;;;;;;;;;0.75;0.75;;;;;30.27;29.45;101168.34;4976901;28;45420;-71
2023/07/05 13:46:40;;;;;;;;;2.50;2.50;;;;;30.34;29.63;101175.69;4976654;28;45192;-71
2023/07/05 13:49:06;;;;;;;;;1.75;1.75;;;;;30.90;28.77;101176.09;4976536;28;45260;-71
2023/07/05 13:51:32;;;;;;;;;1.00;1.00;;;;;30.64;28.35;101181.28;4976587;28;45537;-71
2023/07/05 13:54:00;;;;;;;;;1.75;1.75;;;;;30.67;28.42;101169.81;4976963;28;45362;-72
2023/07/05 13:56:26;;;;;;;;;1.75;1.75;;;;;30.74;28.70;101168.88;4976785;28;45316;-71
2023/07/05 13:58:52;;;;;;;;;3.00;1.50;;;;;30.93;29.03;101155.50;4976780;28;45511;-71
2023/07/05 14:01:18;;;;;;;;;5.00;2.00;;;;;30.95;28.78;101161.72;4976531;28;45456;-72
2023/07/05 14:03:48;;;;;;;;;2.50;2.50;;;;;30.93;28.89;101175.75;4958886;28;45295;-73
2023/07/05 14:06:15;;;;;;;;;1.75;1.75;;;;;30.61;29.02;101170.59;4976734;28;45348;-72
2023/07/05 14:08:41;;;;;;;;;2.75;2.75;;;;;30.80;29.23;101173.63;4976301;28;45516;-71
2023/07/05 14:11:15;;;;;;;;;3.50;1.75;;;;;30.90;29.10;101167.81;4976334;28;46041;-71
2023/07/05 14:13:40;;;;;;;;;2.75;2.75;;;;;31.08;28.63;101170.19;4995826;28;45401;-71
2023/07/05 14:16:11;;;;;;;;;3.75;2.50;;;;;31.11;29.00;101179.00;4995765;28;45488;-72
2023/07/05 14:18:36;;;;;;;;;5.50;3.00;;;;;30.84;28.75;101186.06;4996194;28;45381;-72
2023/07/05 14:21:04;;;;;;;;;2.50;2.50;;;;;30.77;28.67;101184.25;4995442;28;45535;-73
2023/07/05 14:23:29;;;;;;;;;1.75;1.75;;;;;30.67;28.35;101190.06;4996015;28;45337;-72
2023/07/05 14:25:55;;;;;;;;;5.75;1.75;;;;;30.86;28.20;101185.88;4995820;28;45383;-74
2023/07/05 14:28:20;;;;;;;;;2.25;1.75;;;;;30.84;28.76;101183.28;4995813;28;45497;-75
2023/07/05 14:30:48;;;;;;;;;3.50;2.00;;;;;30.87;28.91;101186.72;4997474;28;45853;-74
2023/07/05 14:33:18;;;;;;;;;2.75;2.75;;;;;30.69;29.01;101195.41;5015689;28;45278;-75
2023/07/05 14:35:44;;;;;;;;;3.75;2.00;;;;;30.65;28.52;101188.53;5015449;28;45416;-71
2023/07/05 14:38:09;;;;;;;;;3.00;2.50;;;;;30.67;28.90;101191.97;5015406;28;45451;-71
2023/07/05 14:40:36;;;;;;;;;3.75;1.50;;;;;30.67;28.51;101183.66;4997765;28;46307;-71
2023/07/05 14:43:04;;;;;;;;;2.00;2.00;;;;;30.42;28.30;101177.50;4995564;28;45409;-71
2023/07/05 14:45:33;;;;;;;;;3.00;2.00;;;;;30.80;28.27;101175.53;4995456;28;45678;-71
2023/07/05 14:48:01;;;;;;;;;1.75;1.75;;;;;30.95;27.36;101179.19;4995119;28;45576;-70
2023/07/05 14:50:29;;;;;;;;;0.75;0.75;;;;;30.79;26.99;101185.75;4995098;28;46345;-71
2023/07/05 14:52:58;;;;;;;;;2.50;2.50;;;;;30.76;27.38;101185.28;4995074;28;45282;-69
2023/07/05 14:55:26;;;;;;;;;1.25;1.25;;;;;30.86;27.68;101169.25;4994836;28;45558;-70
2023/07/05 14:57:52;;;;;;;;;2.25;1.25;;;;;31.40;27.38;101179.97;4994535;28;45443;-71
2023/07/05 15:00:20;;;;;;;;;2.50;2.50;;;;;31.53;27.79;101167.13;4992339;28;45309;-71
2023/07/05 15:02:47;;;;;;;;;1.00;1.00;;;;;31.90;27.12;101174.34;4994328;28;45415;-70
2023/07/05 15:05:15;;;;;;;;;4.50;2.00;;;;;32.00;26.43;101174.00;4994517;28;45321;-70
2023/07/05 15:07:40;;;;;;;;;6.25;0.75;;;;;31.92;26.48;101168.59;4994538;28;45551;-71
2023/07/05 15:10:06;;;;;;;;;3.50;1.75;;;;;31.83;26.74;101173.44;4994483;28;45986;-68
2023/07/05 15:12:44;;;;;;;;;1.75;0.50;;;;;31.70;26.71;101172.44;4994424;28;45382;-69
2023/07/05 15:15:37;;;;;;;;;3.75;2.00;;;;;31.77;27.08;101163.13;4994710;28;45441;-69
2023/07/05 15:18:03;;;;;;;;;2.50;2.50;;;;;32.06;26.74;101166.81;4993229;28;45321;-72
2023/07/05 15:20:28;;;;;;;;;2.00;2.00;;;;;31.77;25.56;101165.91;4993662;28;46096;-74
2023/07/05 15:22:53;;;;;;;;;1.75;1.75;;;;;31.78;25.66;101164.84;4994332;28;45298;-72
2023/07/05 15:25:20;;;;;;;;;0.75;0.75;;;;;32.02;25.10;101169.13;4994546;28;45203;-72
2023/07/05 15:27:48;;;;;;;;;1.75;1.75;;;;;32.22;24.79;101174.88;4994076;28;45333;-70
2023/07/05 15:30:16;;;;;;;;;3.00;3.00;;;;;32.19;25.18;101150.31;4984878;28;46519;-72
2023/07/05 15:32:45;;;;;;;;;1.75;1.75;;;;;32.40;25.24;101178.00;4984014;28;45462;-70
2023/07/05 15:35:14;;;;;;;;;3.50;3.00;;;;;32.19;25.30;101161.41;4989114;28;45322;-69
2023/07/05 15:37:39;;;;;;;;;1.00;0.50;;;;;32.15;25.92;101165.63;4986416;28;45543;-70
2023/07/05 15:40:06;;;;;;;;;4.00;2.00;;;;;32.33;25.36;101160.44;4988707;28;45449;-71
2023/07/05 15:42:32;;;;;;;;;0.75;0.75;;;;;32.49;25.00;101168.47;4994393;28;45395;-70
2023/07/05 15:44:58;;;;;;;;;2.50;2.50;;;;;32.75;25.41;101165.00;4992746;28;45386;-72
2023/07/05 15:47:23;;;;;;;;;2.00;2.00;;;;;33.08;24.95;101154.09;4987913;28;45540;-70
2023/07/05 15:49:49;;;;;;;;;2.75;2.75;;;;;33.32;24.50;101159.13;4993974;28;45514;-68
2023/07/05 15:52:15;;;;;;;;;2.75;1.25;;;;;33.54;23.85;101147.81;4977172;28;45403;-71
2023/07/05 15:54:40;;;;;;;;;2.00;1.75;;;;;33.46;24.13;101168.34;4990387;28;45218;-69
2023/07/05 15:57:05;;;;;;;;;1.75;0.75;;;;;33.06;23.76;101143.16;4995422;28;45222;-69
2023/07/05 15:59:35;;;;;;;;;2.00;2.00;;;;;33.18;24.07;101153.66;4994744;28;45368;-71
2023/07/05 16:02:09;;;;;;;;;3.25;2.00;;;;;33.21;23.99;101142.16;4994131;28;45514;-71
2023/07/05 16:04:35;;;;;;;;;2.00;1.25;;;;;33.11;24.43;101147.22;4983391;28;45474;-72